Time;durP1;ratioP1;P1;durP2;ratioP2;P2;SDS_P1;SDS_P2;PMS_P1;PMS_P2;Temp;Humidity;BMP_temperature;BMP_pressure;BME280_temperature;BME280_humidity;BME280_pressure;Samples;Min_cycle;Max_cycle;Signal;HPM_P1;HPM_P2
2022/06/27 00:02:02;;;;;;;6.85;5.32;;;18.40;99.90;;;;;;5014368;28;20470;-66
2022/06/27 00:04:28;;;;;;;8.80;4.50;;;18.40;99.90;;;;;;5001294;28;20049;-65
2022/06/27 00:06:53;;;;;;;6.88;5.15;;;18.40;99.90;;;;;;5001683;28;20132;-65
2022/06/27 00:09:19;;;;;;;7.25;4.97;;;18.40;99.90;;;;;;4982454;28;20114;-65
2022/06/27 00:11:45;;;;;;;6.75;5.25;;;18.40;99.90;;;;;;5008431;28;20045;-65
2022/06/27 00:14:11;;;;;;;6.95;5.38;;;18.40;99.90;;;;;;5002154;28;20693;-65
2022/06/27 00:16:37;;;;;;;8.88;5.35;;;18.40;99.90;;;;;;5000359;28;20048;-65
2022/06/27 00:19:03;;;;;;;9.23;5.35;;;18.40;99.90;;;;;;4991838;28;20045;-65
2022/06/27 00:21:29;;;;;;;8.23;5.80;;;18.30;99.90;;;;;;5037854;28;20076;-65
2022/06/27 00:23:55;;;;;;;8.82;5.78;;;18.30;99.90;;;;;;5015264;28;20579;-65
2022/06/27 00:26:21;;;;;;;7.30;5.78;;;18.30;99.90;;;;;;5000392;28;20049;-65
2022/06/27 00:28:47;;;;;;;8.65;5.65;;;18.30;99.90;;;;;;5011127;28;20111;-65
2022/06/27 00:31:13;;;;;;;8.93;6.20;;;18.30;99.90;;;;;;4977858;28;20432;-65
2022/06/27 00:33:39;;;;;;;9.07;6.22;;;18.30;99.90;;;;;;5016746;28;20042;-65
2022/06/27 00:36:05;;;;;;;9.05;6.32;;;18.30;99.90;;;;;;5005334;28;20200;-65
2022/06/27 00:38:31;;;;;;;10.65;6.47;;;18.20;99.90;;;;;;5007846;28;20045;-65
2022/06/27 00:40:57;;;;;;;8.88;6.55;;;18.20;99.90;;;;;;4985524;28;20064;-65
2022/06/27 00:43:23;;;;;;;10.05;6.18;;;18.20;99.90;;;;;;5006605;28;20056;-65
2022/06/27 00:45:49;;;;;;;10.85;6.70;;;18.20;99.90;;;;;;5005179;28;20491;-65
2022/06/27 00:48:14;;;;;;;7.75;6.13;;;18.20;99.90;;;;;;4988280;28;20050;-65
2022/06/27 00:50:41;;;;;;;7.50;6.10;;;18.20;99.90;;;;;;4985340;28;20054;-65
2022/06/27 00:53:08;;;;;;;10.40;6.25;;;18.20;99.90;;;;;;5015164;28;20448;-66
2022/06/27 00:55:34;;;;;;;9.82;6.03;;;18.20;99.90;;;;;;4999398;28;20120;-65
2022/06/27 00:58:01;;;;;;;9.25;6.90;;;18.20;99.90;;;;;;4996764;28;20108;-66
2022/06/27 01:00:27;;;;;;;7.70;6.65;;;18.20;99.90;;;;;;5014073;28;20516;-65
2022/06/27 01:02:52;;;;;;;9.07;5.97;;;18.10;99.90;;;;;;4997366;28;20049;-65
2022/06/27 01:05:19;;;;;;;7.68;6.03;;;18.10;99.90;;;;;;4995156;28;20527;-65
2022/06/27 01:07:45;;;;;;;9.40;6.32;;;18.20;99.90;;;;;;5016978;28;20049;-66
2022/06/27 01:10:11;;;;;;;11.43;6.82;;;18.10;99.90;;;;;;5012712;28;20784;-65
2022/06/27 01:12:40;;;;;;;9.23;6.88;;;18.10;99.90;;;;;;5008443;28;20103;-65
2022/06/27 01:15:07;;;;;;;10.13;6.68;;;18.20;99.90;;;;;;4991593;28;20060;-65
2022/06/27 01:17:34;;;;;;;7.70;6.50;;;18.10;99.90;;;;;;5006665;28;20400;-66
2022/06/27 01:20:00;;;;;;;8.90;6.95;;;18.10;99.90;;;;;;5013224;28;22533;-65
2022/06/27 01:22:26;;;;;;;10.85;7.20;;;18.10;99.90;;;;;;5006634;28;20708;-66
2022/06/27 01:24:52;;;;;;;8.63;6.43;;;18.10;99.90;;;;;;5008273;28;20050;-65
2022/06/27 01:27:18;;;;;;;8.68;7.00;;;18.10;99.90;;;;;;5016984;28;20057;-65
2022/06/27 01:29:43;;;;;;;9.70;6.50;;;18.10;99.90;;;;;;4995467;28;20159;-66
2022/06/27 01:32:09;;;;;;;9.45;6.80;;;18.00;99.90;;;;;;4988514;28;20053;-65
2022/06/27 01:34:36;;;;;;;8.90;6.55;;;18.00;99.90;;;;;;4999257;28;20057;-65
2022/06/27 01:37:02;;;;;;;8.75;6.38;;;18.00;99.90;;;;;;5015819;28;20116;-66
2022/06/27 01:39:28;;;;;;;7.28;5.93;;;18.00;99.90;;;;;;5023006;28;20045;-65
2022/06/27 01:41:57;;;;;;;5.93;5.30;;;18.00;99.90;;;;;;4995026;28;20049;-65
2022/06/27 01:44:26;;;;;;;6.82;5.53;;;18.00;99.90;;;;;;5011992;28;20037;-65
2022/06/27 01:46:53;;;;;;;10.57;6.65;;;18.00;99.90;;;;;;5008179;28;20045;-66
2022/06/27 01:49:20;;;;;;;7.03;6.22;;;18.00;99.90;;;;;;4982712;28;20049;-65
2022/06/27 01:51:49;;;;;;;8.57;6.15;;;18.00;99.90;;;;;;5011320;28;20049;-66
2022/06/27 01:54:18;;;;;;;6.70;5.75;;;18.00;99.90;;;;;;4994167;28;20073;-66
2022/06/27 01:56:46;;;;;;;8.05;6.78;;;18.00;99.90;;;;;;5010401;28;20041;-65
2022/06/27 01:59:13;;;;;;;7.75;6.10;;;18.00;99.90;;;;;;4984445;28;20151;-65
2022/06/27 02:01:44;;;;;;;10.35;6.50;;;18.00;99.90;;;;;;4993839;28;20053;-66
2022/06/27 02:04:12;;;;;;;8.68;5.45;;;18.00;99.90;;;;;;4988887;28;20052;-64
2022/06/27 02:06:39;;;;;;;10.88;7.78;;;17.90;99.90;;;;;;5013533;28;20056;-65
2022/06/27 02:09:07;;;;;;;7.65;6.60;;;18.00;99.90;;;;;;4994505;28;20377;-64
2022/06/27 02:11:34;;;;;;;9.05;6.93;;;17.90;99.90;;;;;;4990271;28;20776;-65
2022/06/27 02:14:00;;;;;;;9.23;7.40;;;17.90;99.90;;;;;;4996695;28;20041;-65
2022/06/27 02:16:26;;;;;;;8.63;6.57;;;17.90;99.90;;;;;;4988022;28;20041;-67
2022/06/27 02:18:52;;;;;;;8.45;7.03;;;17.90;99.90;;;;;;4989352;28;20060;-65
2022/06/27 02:21:24;;;;;;;15.90;7.78;;;17.90;99.90;;;;;;4998450;28;20951;-65
2022/06/27 02:23:51;;;;;;;11.35;8.48;;;17.90;99.90;;;;;;4982337;28;20052;-65
2022/06/27 02:26:22;;;;;;;9.18;8.27;;;17.90;99.90;;;;;;5003684;28;25804;-64
2022/06/27 02:28:50;;;;;;;10.50;8.90;;;17.80;99.90;;;;;;5009393;28;20053;-65
2022/06/27 02:31:16;;;;;;;12.10;8.38;;;17.80;99.90;;;;;;5007200;28;20049;-65
2022/06/27 02:33:44;;;;;;;9.45;8.40;;;17.80;99.90;;;;;;4979138;28;20051;-65
2022/06/27 02:36:14;;;;;;;12.25;9.60;;;17.80;99.90;;;;;;5018107;28;20040;-65
2022/06/27 02:38:42;;;;;;;9.65;8.60;;;17.70;99.90;;;;;;4988598;28;20045;-65
2022/06/27 02:41:12;;;;;;;11.43;9.02;;;17.70;99.90;;;;;;4995956;28;20048;-65
2022/06/27 02:43:39;;;;;;;10.45;9.32;;;17.70;99.90;;;;;;5006992;28;20045;-65
2022/06/27 02:46:05;;;;;;;10.60;9.40;;;17.70;99.90;;;;;;4989141;28;20053;-64
2022/06/27 02:48:32;;;;;;;13.07;9.65;;;17.60;99.90;;;;;;5011556;28;20077;-67
2022/06/27 02:51:22;;;;;;;10.63;9.48;;;17.60;99.90;;;;;;4997250;28;20049;-65
2022/06/27 02:54:08;;;;;;;11.15;9.57;;;17.60;99.90;;;;;;5005754;28;20881;-65
2022/06/27 02:56:42;;;;;;;11.77;9.65;;;17.60;99.90;;;;;;5009292;28;20053;-66
2022/06/27 02:59:19;;;;;;;12.45;10.02;;;17.60;99.90;;;;;;5009779;28;21878;-65
2022/06/27 03:01:49;;;;;;;11.20;9.60;;;17.60;99.90;;;;;;5012453;28;20064;-65
2022/06/27 03:04:15;;;;;;;12.45;9.55;;;17.60;99.90;;;;;;4999019;28;20045;-65
2022/06/27 03:06:41;;;;;;;10.63;9.23;;;17.60;99.90;;;;;;4997825;28;20182;-65
2022/06/27 03:09:07;;;;;;;11.52;9.52;;;17.60;99.90;;;;;;4984312;28;20091;-67
2022/06/27 03:11:33;;;;;;;13.43;10.23;;;17.60;99.90;;;;;;4992981;28;20073;-65
2022/06/27 03:13:59;;;;;;;13.57;10.23;;;17.60;99.90;;;;;;4967699;28;20124;-64
2022/06/27 03:16:25;;;;;;;12.00;9.98;;;17.60;99.90;;;;;;5011157;28;20108;-65
2022/06/27 03:18:52;;;;;;;12.85;10.07;;;17.50;99.90;;;;;;4994710;28;20045;-64
2022/06/27 03:21:20;;;;;;;14.30;10.35;;;17.50;99.90;;;;;;5003723;28;20050;-65
2022/06/27 03:23:49;;;;;;;10.50;9.30;;;17.60;99.90;;;;;;4974416;28;20136;-65
2022/06/27 03:26:17;;;;;;;11.27;9.52;;;17.60;99.90;;;;;;5000547;28;20049;-64
2022/06/27 03:28:46;;;;;;;16.85;10.57;;;17.60;99.90;;;;;;4966186;28;20061;-66
2022/06/27 03:31:13;;;;;;;12.18;9.30;;;17.60;99.90;;;;;;5011992;28;20146;-65
2022/06/27 03:33:39;;;;;;;11.90;9.98;;;17.60;99.90;;;;;;4985890;28;20073;-64
2022/06/27 03:36:06;;;;;;;13.27;10.10;;;17.60;99.90;;;;;;4996311;28;20060;-63
2022/06/27 03:38:32;;;;;;;12.85;10.07;;;17.60;99.90;;;;;;4986632;28;20509;-66
2022/06/27 03:40:59;;;;;;;12.55;10.88;;;17.60;99.90;;;;;;4999749;28;20046;-65
2022/06/27 03:43:26;;;;;;;13.75;10.60;;;17.60;99.90;;;;;;4986524;28;20492;-65
2022/06/27 03:45:51;;;;;;;15.00;11.93;;;17.60;99.90;;;;;;5010528;28;20056;-65
2022/06/27 03:51:02;;;;;;;14.35;11.77;;;17.60;99.90;;;;;;5010775;28;20044;-65
2022/06/27 03:53:27;;;;;;;14.23;10.80;;;17.60;99.90;;;;;;4987796;28;20045;-65
2022/06/27 03:55:53;;;;;;;14.95;11.50;;;17.50;99.90;;;;;;4982659;28;20099;-65
2022/06/27 03:58:19;;;;;;;16.48;12.85;;;17.60;99.90;;;;;;5006743;28;20069;-66
2022/06/27 04:00:45;;;;;;;17.05;14.25;;;17.60;99.90;;;;;;4978897;28;20061;-65
2022/06/27 04:03:11;;;;;;;15.70;13.70;;;17.60;99.90;;;;;;5011921;28;20462;-64
2022/06/27 04:05:37;;;;;;;15.52;13.30;;;17.60;99.90;;;;;;5011553;28;20778;-65
2022/06/27 04:08:03;;;;;;;16.73;13.73;;;17.60;99.90;;;;;;5005676;28;20045;-64
2022/06/27 04:10:29;;;;;;;17.67;13.55;;;17.60;99.90;;;;;;5009280;28;20103;-64
2022/06/27 04:12:55;;;;;;;16.40;12.68;;;17.50;99.90;;;;;;4995043;28;20488;-64
2022/06/27 04:15:21;;;;;;;15.43;12.98;;;17.50;99.90;;;;;;4979513;28;20041;-64
2022/06/27 04:17:47;;;;;;;13.30;11.52;;;17.50;99.90;;;;;;5003117;28;20037;-67
2022/06/27 04:20:12;;;;;;;13.57;12.13;;;17.50;99.90;;;;;;4993943;28;20132;-64
2022/06/27 04:22:38;;;;;;;14.48;11.43;;;17.50;99.90;;;;;;4957175;28;20111;-65
2022/06/27 04:25:04;;;;;;;11.52;10.32;;;17.50;99.90;;;;;;4999426;28;20606;-64
2022/06/27 04:27:31;;;;;;;15.23;10.77;;;17.50;99.90;;;;;;4996216;28;20323;-64
2022/06/27 04:29:57;;;;;;;11.68;10.00;;;17.50;99.90;;;;;;5013171;28;20107;-64
2022/06/27 04:32:25;;;;;;;12.82;10.68;;;17.50;99.90;;;;;;4996143;28;20148;-65
2022/06/27 04:34:51;;;;;;;11.68;10.27;;;17.50;99.90;;;;;;5032963;28;20121;-64
2022/06/27 04:37:18;;;;;;;12.25;9.70;;;17.60;99.90;;;;;;4996264;28;20138;-64
2022/06/27 04:39:45;;;;;;;12.85;8.93;;;17.60;99.90;;;;;;5015418;28;20098;-65
2022/06/27 04:42:11;;;;;;;10.57;9.20;;;17.60;99.90;;;;;;4989992;28;20103;-64
2022/06/27 04:44:40;;;;;;;12.13;8.63;;;17.60;99.90;;;;;;4993848;28;20434;-64
2022/06/27 04:47:07;;;;;;;9.93;8.85;;;17.60;99.90;;;;;;5014113;28;20069;-65
2022/06/27 04:49:34;;;;;;;10.20;9.10;;;17.60;99.90;;;;;;5014430;28;20045;-64
2022/06/27 04:52:00;;;;;;;11.20;9.70;;;17.60;99.90;;;;;;5004139;28;20099;-64
2022/06/27 04:54:27;;;;;;;11.52;10.30;;;17.70;99.90;;;;;;5012578;28;20069;-65
2022/06/27 04:56:55;;;;;;;11.65;10.20;;;17.70;99.90;;;;;;4991932;28;20042;-65
2022/06/27 04:59:22;;;;;;;13.98;10.77;;;17.70;99.90;;;;;;5008872;28;20052;-65
2022/06/27 05:01:50;;;;;;;15.18;10.50;;;17.70;99.90;;;;;;5013021;28;20504;-65
2022/06/27 05:04:20;;;;;;;12.80;10.63;;;17.70;99.90;;;;;;5011651;28;20518;-65
2022/06/27 05:06:46;;;;;;;10.90;9.20;;;17.70;99.90;;;;;;5014382;28;20933;-64
2022/06/27 05:09:13;;;;;;;9.15;8.23;;;17.80;99.90;;;;;;5018096;28;20052;-64
2022/06/27 05:11:41;;;;;;;9.13;8.07;;;17.80;99.90;;;;;;5031803;28;20077;-64
2022/06/27 05:14:07;;;;;;;12.10;8.85;;;17.70;99.90;;;;;;5009693;28;20514;-65
2022/06/27 05:16:34;;;;;;;10.02;8.05;;;17.70;99.90;;;;;;5014343;28;20045;-66
2022/06/27 05:19:00;;;;;;;11.55;7.85;;;17.70;99.90;;;;;;5015714;28;20447;-64
2022/06/27 05:21:27;;;;;;;8.77;7.70;;;17.70;99.90;;;;;;5005913;28;20399;-65
2022/06/27 05:23:52;;;;;;;9.07;6.82;;;17.70;99.90;;;;;;4985638;28;20573;-65
2022/06/27 05:26:18;;;;;;;7.65;6.28;;;17.70;99.90;;;;;;5015509;28;20132;-64
2022/06/27 05:28:45;;;;;;;10.32;4.57;;;17.80;99.90;;;;;;4998588;28;20140;-64
2022/06/27 05:31:11;;;;;;;5.72;5.10;;;17.80;99.90;;;;;;5005229;28;20056;-65
2022/06/27 05:33:37;;;;;;;8.15;5.45;;;17.80;99.90;;;;;;5007347;28;20461;-65
2022/06/27 05:36:06;;;;;;;6.07;4.93;;;17.80;99.90;;;;;;5006065;28;20653;-64
2022/06/27 05:38:32;;;;;;;8.13;5.07;;;17.80;99.90;;;;;;5008752;28;20064;-66
2022/06/27 05:40:59;;;;;;;7.35;5.05;;;17.80;99.90;;;;;;5006338;28;20042;-64
2022/06/27 05:43:25;;;;;;;4.75;4.25;;;17.90;99.90;;;;;;5001039;28;20500;-65
2022/06/27 05:45:53;;;;;;;4.88;4.38;;;17.90;99.90;;;;;;5018522;28;20521;-64
2022/06/27 05:48:19;;;;;;;3.97;3.47;;;17.90;99.90;;;;;;5034736;28;20048;-64
2022/06/27 05:50:45;;;;;;;3.88;3.53;;;18.00;99.90;;;;;;5012411;28;20041;-63
2022/06/27 05:53:10;;;;;;;4.15;3.63;;;18.00;99.90;;;;;;5004921;28;20049;-64
2022/06/27 05:55:38;;;;;;;4.10;3.70;;;18.00;99.90;;;;;;4994516;28;20046;-66
2022/06/27 05:58:04;;;;;;;4.57;3.50;;;18.00;99.90;;;;;;4975146;28;20053;-63
2022/06/27 06:00:31;;;;;;;2.97;2.78;;;18.10;99.90;;;;;;4997244;28;20049;-63
2022/06/27 06:02:58;;;;;;;3.28;2.97;;;18.10;99.90;;;;;;4995489;28;20488;-64
2022/06/27 06:05:24;;;;;;;3.30;3.00;;;18.20;99.90;;;;;;5009692;28;20055;-64
2022/06/27 06:07:50;;;;;;;3.67;2.95;;;18.20;99.90;;;;;;4982809;28;20545;-63
2022/06/27 06:10:16;;;;;;;5.03;3.00;;;18.30;99.90;;;;;;4989409;28;20112;-61
2022/06/27 06:12:42;;;;;;;4.03;3.08;;;18.30;99.90;;;;;;4991559;28;20987;-62
2022/06/27 06:15:11;;;;;;;3.15;2.50;;;18.40;99.90;;;;;;5017055;28;20053;-62
2022/06/27 06:17:37;;;;;;;2.90;2.58;;;18.40;99.90;;;;;;5019184;28;20543;-62
2022/06/27 06:20:05;;;;;;;3.85;2.50;;;18.40;99.90;;;;;;5021269;28;20045;-63
2022/06/27 06:22:31;;;;;;;2.60;2.40;;;18.50;99.90;;;;;;5019733;28;20475;-62
2022/06/27 06:24:57;;;;;;;2.63;2.42;;;18.50;99.90;;;;;;4997447;28;20085;-62
2022/06/27 06:27:23;;;;;;;3.30;2.20;;;18.50;99.90;;;;;;5022117;28;20088;-62
2022/06/27 06:29:49;;;;;;;3.28;2.20;;;18.50;99.90;;;;;;5002487;28;20148;-64
2022/06/27 06:32:15;;;;;;;2.75;2.22;;;18.50;99.90;;;;;;5015050;28;20458;-64
2022/06/27 06:34:42;;;;;;;3.03;2.15;;;18.40;99.90;;;;;;4993945;28;20045;-62
2022/06/27 06:37:09;;;;;;;2.90;2.00;;;18.40;99.90;;;;;;5017859;28;20053;-63
2022/06/27 06:39:36;;;;;;;2.60;2.40;;;18.40;99.90;;;;;;5019141;28;20046;-62
2022/06/27 06:42:03;;;;;;;3.35;2.65;;;18.40;99.90;;;;;;5018444;28;20048;-63
2022/06/27 06:44:29;;;;;;;2.78;2.58;;;18.40;99.90;;;;;;5018614;28;20073;-62
2022/06/27 06:46:56;;;;;;;4.07;2.80;;;18.40;99.90;;;;;;4984310;28;20533;-63
2022/06/27 06:49:22;;;;;;;3.10;2.50;;;18.40;99.90;;;;;;5018633;28;20045;-62
2022/06/27 06:51:49;;;;;;;2.50;2.05;;;18.40;99.90;;;;;;5003344;28;20045;-62
2022/06/27 06:54:17;;;;;;;2.75;2.28;;;18.40;99.90;;;;;;5030327;28;20049;-63
2022/06/27 06:56:51;;;;;;;2.78;2.30;;;18.50;99.90;;;;;;4990641;28;20099;-62
2022/06/27 06:59:17;;;;;;;2.25;2.05;;;18.60;99.90;;;;;;5018759;28;20038;-63
2022/06/27 07:01:46;;;;;;;2.95;2.10;;;18.50;99.90;;;;;;5012788;28;20143;-62
2022/06/27 07:04:12;;;;;;;2.55;2.00;;;18.50;99.90;;;;;;5018926;28;20633;-62
2022/06/27 07:06:39;;;;;;;2.55;2.20;;;18.50;99.90;;;;;;5013110;28;20064;-62
2022/06/27 07:09:06;;;;;;;2.00;1.85;;;18.50;99.90;;;;;;5011884;28;20123;-62
2022/06/27 07:11:33;;;;;;;4.90;2.97;;;18.50;99.90;;;;;;5015668;28;20095;-63
2022/06/27 07:13:59;;;;;;;3.60;2.90;;;18.60;99.90;;;;;;4991598;28;20049;-62
2022/06/27 07:16:26;;;;;;;6.50;3.72;;;18.60;99.90;;;;;;5016700;28;20037;-62
2022/06/27 07:18:57;;;;;;;6.32;3.50;;;18.70;99.90;;;;;;5019878;28;20117;-62
2022/06/27 07:21:25;;;;;;;3.65;3.33;;;18.70;99.90;;;;;;5010501;28;20051;-62
2022/06/27 07:23:52;;;;;;;3.53;2.67;;;18.70;99.90;;;;;;4979537;28;20049;-63
2022/06/27 07:26:19;;;;;;;4.88;3.47;;;18.70;99.90;;;;;;5024721;28;20422;-63
2022/06/27 07:28:46;;;;;;;3.95;3.30;;;18.80;99.90;;;;;;5021878;28;20062;-63
2022/06/27 07:31:13;;;;;;;4.10;3.58;;;18.80;99.90;;;;;;5018678;28;20852;-63
2022/06/27 07:33:41;;;;;;;4.47;3.65;;;18.80;99.90;;;;;;5014332;28;20068;-63
2022/06/27 07:36:08;;;;;;;5.18;3.70;;;18.80;99.90;;;;;;5017957;28;20061;-63
2022/06/27 07:38:40;;;;;;;5.18;3.63;;;18.80;99.90;;;;;;5020919;28;20045;-63
2022/06/27 07:41:07;;;;;;;5.57;3.90;;;18.80;99.90;;;;;;5022481;28;20045;-63
2022/06/27 07:43:34;;;;;;;7.05;3.85;;;18.80;99.90;;;;;;5008013;28;20046;-63
2022/06/27 07:46:01;;;;;;;5.43;4.22;;;18.80;99.90;;;;;;5017951;28;20538;-63
2022/06/27 07:48:28;;;;;;;6.40;4.43;;;18.80;99.90;;;;;;5020141;28;20507;-63
2022/06/27 07:50:56;;;;;;;6.32;4.63;;;18.80;99.90;;;;;;5012826;28;20042;-63
2022/06/27 07:53:23;;;;;;;5.88;4.15;;;18.80;99.90;;;;;;5028266;28;20872;-63
2022/06/27 07:56:08;;;;;;;5.03;4.18;;;18.80;99.90;;;;;;5024440;28;20038;-63
2022/06/27 07:58:38;;;;;;;5.07;3.90;;;18.70;99.90;;;;;;5008248;28;20487;-63
2022/06/27 08:01:09;;;;;;;4.82;3.80;;;18.70;99.90;;;;;;5007369;28;20049;-63
2022/06/27 08:03:40;;;;;;;5.25;3.30;;;18.70;99.90;;;;;;5002505;28;20087;-63
2022/06/27 08:06:09;;;;;;;4.55;3.53;;;18.70;99.90;;;;;;5014262;28;20041;-63
2022/06/27 08:08:41;;;;;;;3.85;3.47;;;18.70;99.90;;;;;;4991144;28;20106;-63
2022/06/27 08:11:11;;;;;;;4.45;3.45;;;18.80;99.90;;;;;;5021733;28;20107;-63
2022/06/27 08:13:38;;;;;;;6.72;4.15;;;18.80;99.90;;;;;;5013194;28;20099;-63
2022/06/27 08:16:05;;;;;;;6.22;3.92;;;18.80;99.90;;;;;;5018661;28;20500;-63
2022/06/27 08:18:32;;;;;;;4.20;3.42;;;18.80;99.90;;;;;;5014149;28;20480;-63
2022/06/27 08:21:00;;;;;;;5.88;4.28;;;18.80;99.90;;;;;;5012530;28;20041;-63
2022/06/27 08:23:27;;;;;;;4.85;4.13;;;18.80;99.90;;;;;;5023693;28;20049;-63
2022/06/27 08:25:53;;;;;;;5.40;4.75;;;18.90;99.90;;;;;;5008916;28;20060;-63
2022/06/27 08:28:20;;;;;;;4.45;3.65;;;18.90;99.90;;;;;;5005130;28;20050;-63
2022/06/27 08:30:46;;;;;;;4.63;4.15;;;18.90;99.90;;;;;;4988420;28;20041;-63
2022/06/27 08:33:13;;;;;;;4.93;4.30;;;18.90;99.90;;;;;;5019071;28;20053;-63
2022/06/27 08:35:40;;;;;;;4.78;4.05;;;19.00;99.90;;;;;;5024653;28;20042;-63
2022/06/27 08:38:06;;;;;;;5.32;4.35;;;19.00;99.90;;;;;;5020851;28;20042;-63
2022/06/27 08:40:32;;;;;;;4.30;3.90;;;19.10;99.90;;;;;;5021514;28;20042;-63
2022/06/27 08:42:58;;;;;;;3.70;3.38;;;19.20;99.90;;;;;;5004967;28;20115;-63
2022/06/27 08:45:25;;;;;;;4.20;3.80;;;19.20;99.90;;;;;;5021863;28;21159;-63
2022/06/27 08:47:58;;;;;;;5.70;3.67;;;19.20;99.90;;;;;;4995121;28;20444;-64
2022/06/27 08:50:24;;;;;;;4.53;3.80;;;19.20;99.90;;;;;;4997299;28;20056;-63
2022/06/27 08:52:52;;;;;;;4.40;3.92;;;19.20;99.90;;;;;;5023074;28;20053;-63
2022/06/27 08:55:18;;;;;;;4.47;3.95;;;19.20;99.90;;;;;;5014617;28;20132;-63
2022/06/27 08:57:45;;;;;;;4.60;3.53;;;19.20;99.90;;;;;;5014449;28;20125;-63
2022/06/27 09:00:15;;;;;;;4.32;3.22;;;19.20;99.90;;;;;;5019788;28;20045;-63
2022/06/27 09:02:44;;;;;;;6.25;3.88;;;19.20;99.90;;;;;;5018378;28;20118;-63
2022/06/27 09:05:15;;;;;;;3.75;3.38;;;19.20;99.90;;;;;;5014586;28;20053;-63
2022/06/27 09:07:53;;;;;;;3.93;3.53;;;19.20;99.90;;;;;;5012716;28;20507;-63
2022/06/27 09:10:27;;;;;;;3.78;3.47;;;19.30;99.90;;;;;;5026491;28;20311;-63
2022/06/27 09:12:58;;;;;;;4.50;3.97;;;19.40;99.90;;;;;;5022933;28;20053;-63
2022/06/27 09:15:48;;;;;;;4.18;3.78;;;19.50;99.90;;;;;;5021396;28;20076;-63
2022/06/27 09:18:23;;;;;;;4.00;3.60;;;19.60;99.90;;;;;;5006815;28;20073;-63
2022/06/27 09:21:05;;;;;;;5.07;3.78;;;19.80;99.90;;;;;;5022948;28;20080;-63
2022/06/27 09:23:39;;;;;;;4.28;3.88;;;19.90;99.90;;;;;;5021563;28;20539;-63
2022/06/27 09:26:12;;;;;;;5.18;4.00;;;20.00;99.90;;;;;;5027719;28;20148;-63
2022/06/27 09:28:41;;;;;;;6.63;4.10;;;20.10;99.90;;;;;;5024721;28;20061;-63
2022/06/27 09:31:10;;;;;;;4.20;3.80;;;20.20;99.90;;;;;;5004058;28;20123;-63
2022/06/27 09:33:38;;;;;;;4.75;4.10;;;20.30;99.90;;;;;;5018015;28;20069;-63
2022/06/27 09:36:13;;;;;;;5.57;3.90;;;20.30;99.90;;;;;;5020297;28;20033;-63
2022/06/27 09:38:43;;;;;;;4.38;3.50;;;20.20;99.90;;;;;;5019968;28;20484;-63
2022/06/27 09:41:12;;;;;;;4.80;3.80;;;20.20;99.90;;;;;;5021553;28;20049;-63
2022/06/27 09:43:46;;;;;;;4.05;3.70;;;20.10;99.90;;;;;;5011374;28;20037;-63
2022/06/27 09:46:17;;;;;;;7.28;4.50;;;20.10;99.90;;;;;;5010815;28;20080;-63
2022/06/27 09:48:45;;;;;;;7.72;4.60;;;20.00;99.90;;;;;;5015019;28;20045;-63
2022/06/27 09:51:16;;;;;;;5.32;4.32;;;20.00;99.90;;;;;;5020172;28;20491;-63
2022/06/27 09:53:49;;;;;;;6.40;4.43;;;20.00;99.90;;;;;;4995639;28;20042;-63
2022/06/27 09:56:20;;;;;;;8.13;4.70;;;20.00;99.90;;;;;;5022177;28;20388;-63
2022/06/27 09:58:45;;;;;;;4.63;4.18;;;20.00;99.90;;;;;;5019236;28;20051;-63
2022/06/27 10:01:12;;;;;;;4.75;4.10;;;20.00;99.90;;;;;;5021130;28;20402;-63
2022/06/27 10:03:38;;;;;;;5.47;4.20;;;20.00;99.90;;;;;;5020523;28;20053;-63
2022/06/27 10:06:06;;;;;;;4.55;3.83;;;20.00;99.90;;;;;;4998117;28;20037;-63
2022/06/27 10:08:33;;;;;;;4.80;3.90;;;20.00;99.90;;;;;;5015815;28;20478;-63
2022/06/27 10:11:06;;;;;;;5.38;4.00;;;20.00;99.90;;;;;;5006813;28;20817;-63
2022/06/27 10:13:33;;;;;;;4.70;3.92;;;19.90;99.90;;;;;;5011368;28;20053;-63
2022/06/27 10:16:09;;;;;;;6.93;4.30;;;19.90;99.90;;;;;;5021890;28;20045;-63
2022/06/27 10:19:14;;;;;;;6.57;4.00;;;19.90;99.90;;;;;;5025953;28;20052;-63
2022/06/27 10:21:46;;;;;;;4.60;4.10;;;19.90;99.90;;;;;;4982806;28;20054;-63
2022/06/27 10:24:24;;;;;;;5.55;3.97;;;19.90;99.90;;;;;;4981283;28;20050;-63
2022/06/27 10:26:52;;;;;;;5.65;4.35;;;20.00;99.90;;;;;;5007703;28;20053;-63
2022/06/27 10:29:42;;;;;;;6.47;4.05;;;20.00;99.90;;;;;;5022215;28;20070;-63
2022/06/27 10:32:43;;;;;;;4.68;4.18;;;20.10;99.90;;;;;;4997151;28;20055;-63
2022/06/27 10:35:11;;;;;;;5.07;4.00;;;20.10;99.90;;;;;;5022308;28;20049;-63
2022/06/27 10:37:41;;;;;;;6.53;3.90;;;20.20;99.90;;;;;;5002298;28;20503;-64
2022/06/27 10:40:19;;;;;;;4.63;3.45;;;20.20;99.90;;;;;;5024345;28;20090;-63
2022/06/27 10:42:56;;;;;;;3.70;2.97;;;20.30;99.90;;;;;;5021899;28;20045;-63
2022/06/27 10:45:21;;;;;;;5.75;3.30;;;20.30;99.90;;;;;;5010533;28;20049;-63
2022/06/27 10:47:47;;;;;;;5.28;3.30;;;20.30;99.90;;;;;;5013085;28;20123;-63
2022/06/27 10:50:15;;;;;;;5.13;2.60;;;20.30;99.90;;;;;;4997535;28;20050;-63
2022/06/27 10:52:41;;;;;;;4.00;2.58;;;20.30;99.90;;;;;;5007509;28;20049;-63
2022/06/27 10:55:23;;;;;;;3.63;2.60;;;20.30;99.90;;;;;;4990675;28;20044;-63
2022/06/27 10:57:50;;;;;;;3.47;3.08;;;20.40;99.90;;;;;;5008562;28;20182;-63
2022/06/27 11:00:37;;;;;;;5.43;2.90;;;20.40;99.90;;;;;;5021977;28;20041;-63
2022/06/27 11:03:04;;;;;;;3.05;2.67;;;20.40;99.90;;;;;;5009937;28;20045;-63
2022/06/27 11:05:50;;;;;;;3.30;2.60;;;20.50;99.90;;;;;;5012933;28;20127;-63
2022/06/27 11:08:16;;;;;;;5.43;3.17;;;20.50;99.90;;;;;;5021780;28;20045;-63
2022/06/27 11:10:43;;;;;;;3.58;2.92;;;20.60;99.90;;;;;;5009484;28;20064;-63
2022/06/27 11:13:09;;;;;;;3.33;2.40;;;20.70;99.90;;;;;;5011097;28;20164;-63
2022/06/27 11:15:35;;;;;;;3.42;2.70;;;20.80;99.90;;;;;;5031985;28;20136;-63
2022/06/27 11:18:07;;;;;;;2.70;2.50;;;20.90;99.90;;;;;;5021728;28;20049;-63
2022/06/27 11:20:33;;;;;;;2.95;2.47;;;21.00;99.90;;;;;;5001943;28;20041;-63
2022/06/27 11:23:01;;;;;;;4.57;2.42;;;21.00;99.90;;;;;;5001940;28;20053;-63
2022/06/27 11:25:28;;;;;;;3.17;2.30;;;21.00;99.90;;;;;;5020751;28;20141;-63
2022/06/27 11:31:57;;;;;;;3.88;2.53;;;21.00;99.90;;;;;;5006476;28;20041;-63
2022/06/27 11:33:32;;;;;;;2.42;2.22;;;21.00;99.90;;;;;;5026817;28;20064;-63
2022/06/27 11:35:59;;;;;;;2.67;2.30;;;21.00;99.90;;;;;;5023175;28;20053;-64
2022/06/27 11:38:30;;;;;;;4.40;2.72;;;21.10;99.90;;;;;;5022145;28;20052;-63
2022/06/27 11:41:01;;;;;;;3.22;2.67;;;21.10;99.90;;;;;;5016609;28;20103;-63
2022/06/27 11:43:46;;;;;;;2.55;2.35;;;21.10;99.90;;;;;;5012381;28;20057;-63
2022/06/27 11:46:49;;;;;;;4.72;2.65;;;21.00;99.90;;;;;;5016946;28;20060;-64
2022/06/27 11:49:16;;;;;;;;;;;21.00;99.90;;;;;;5025882;28;20045;-63
2022/06/27 11:51:46;;;;;;;4.72;2.60;;;21.00;99.90;;;;;;5014542;28;19925;-63
2022/06/27 11:54:15;;;;;;;3.30;2.65;;;21.00;99.90;;;;;;5011139;28;20145;-63
2022/06/27 11:56:48;;;;;;;4.63;2.75;;;21.00;99.90;;;;;;5011893;28;20130;-63
2022/06/27 11:59:15;;;;;;;4.57;2.95;;;21.00;99.90;;;;;;5012936;28;20041;-63
2022/06/27 12:02:03;;;;;;;4.53;3.03;;;21.00;99.90;;;;;;5002274;28;20503;-63
2022/06/27 12:04:34;;;;;;;4.85;3.30;;;21.10;99.90;;;;;;4997847;28;20049;-63
2022/06/27 12:07:08;;;;;;;4.90;3.50;;;21.10;99.90;;;;;;5025523;28;20454;-63
2022/06/27 12:09:52;;;;;;;5.13;3.10;;;21.20;99.90;;;;;;5003099;28;20045;-63
2022/06/27 12:12:25;;;;;;;12.57;3.10;;;21.20;99.90;;;;;;5011228;28;20038;-63
2022/06/27 12:14:52;;;;;;;3.47;3.17;;;21.20;99.90;;;;;;5027248;28;20403;-63
2022/06/27 12:17:19;;;;;;;5.32;3.08;;;21.20;99.90;;;;;;5028370;28;20045;-63
2022/06/27 12:19:45;;;;;;;3.38;2.70;;;21.20;99.90;;;;;;5025375;28;20129;-64
2022/06/27 12:22:17;;;;;;;4.65;3.10;;;21.10;99.90;;;;;;5014818;28;20052;-63
2022/06/27 12:24:46;;;;;;;4.70;3.58;;;21.10;99.90;;;;;;5020240;28;20084;-63
2022/06/27 12:27:12;;;;;;;4.30;2.92;;;21.10;99.90;;;;;;5025441;28;21603;-63
2022/06/27 12:29:38;;;;;;;5.32;2.80;;;21.00;99.90;;;;;;4993910;28;20044;-63
2022/06/27 12:32:04;;;;;;;4.70;2.80;;;21.00;99.90;;;;;;5021846;28;20049;-63
2022/06/27 12:34:31;;;;;;;6.22;2.90;;;21.00;99.90;;;;;;4992467;28;20048;-63
2022/06/27 12:36:57;;;;;;;3.15;2.70;;;21.00;99.90;;;;;;5010779;28;20551;-63
2022/06/27 12:39:28;;;;;;;5.28;3.00;;;21.10;99.90;;;;;;4997106;28;20052;-63
2022/06/27 12:41:54;;;;;;;4.00;2.38;;;21.20;99.90;;;;;;5012165;28;20056;-63
2022/06/27 12:44:20;;;;;;;3.92;2.40;;;21.20;99.90;;;;;;4991451;28;20085;-63
2022/06/27 12:46:46;;;;;;;7.65;3.03;;;21.30;99.90;;;;;;5008195;28;20044;-63
2022/06/27 12:49:12;;;;;;;3.55;2.50;;;21.30;99.90;;;;;;5018578;28;20483;-63
2022/06/27 12:51:38;;;;;;;4.05;3.15;;;21.40;99.90;;;;;;5020278;28;20103;-63
2022/06/27 12:54:04;;;;;;;3.63;3.15;;;21.50;99.90;;;;;;5017412;28;20038;-63
2022/06/27 12:56:30;;;;;;;6.43;3.30;;;21.50;99.90;;;;;;4965651;28;20056;-62